Terminal Aerodrome Forecast
Issued by NWS

Home | Current Version | Previous Version | Graphics & Text | Print | Product List | Glossary On
Versions: 1 2 3 4 5 6 7 8 9 10 11 12 13 14 15 16 17
000
FTUS43 KMPX 212336
TAFRWF
TAF
KRWF 212336Z 2200/2224 29010KT P6SM SCT035 OVC050
     FM220800 24008KT P6SM SCT100
     FM221700 32008KT P6SM BKN060=

USA.gov is the U.S. government's official web portal to all federal, state and local government web resources and services.